Terminal Aerodrome Forecast
Issued by NWS

Home | Current Version | Previous Version | Text Only | Print | Product List | Glossary On
Versions: 1 2 3 4 5 6 7 8 9 10 11 12 13 14 15 16 17 18 19 20 21 22 23 24
000
FTUS43 KGRR 032337
TAFJXN
TAF
KJXN 032337Z 0400/0424 11006KT P6SM FEW050 SCT080 SCT110
     FM040300 00000KT 5SM BR SCT030 OVC070
     FM040500 00000KT 3SM BR SCT015
     FM041000 00000KT 3/4SM BR OVC004
     FM041400 21004KT 3SM BR OVC019
     FM041500 21005KT 6SM HZ BKN025=

USA.gov is the U.S. government's official web portal to all federal, state and local government web resources and services.